Southwest Oregon Regional Airport
KOTH : now visible

Airfield :











YOU CAN JOIN US ON...

 
LOGIN :

Register | Disclaimer

   EN    FR    IT 

 









Legend :    VFR   Marginal VFR   IFR   Intensive IFR   Very Intensive IFR
Visi :
Ceiling :
>= 8 km
>= 3000ft
5 to 8 km
1000 to 3000 ft
1500m to 5 km
500 to 1000 ft
800 to 1500m
200 to 500 ft
< 800m
< 200 ft
Symbols :   Thunderstorms  Fog  Heavy snow  Heavy precipitations  Wind > 20 kt






- Airport Elevation : 17 ft
- IATA code : OTH


KOTH - Southwest Oregon Regional

CURRENT METAR :
  • 190810Z AUTO 15005KT 10SM SCT012 OVC070 14/13 A2991 RMK AO2

EXPIRED METARs :
  • 190756Z AUTO 15006KT 10SM BKN012 OVC080 14/13 A2991 RMK AO2 RAE14 SLP128 P0000 T01440133 401830133
  • 190724Z AUTO 18005KT 10SM FEW024 SCT030 OVC075 14/13 A2991 RMK AO2 RAE14 P0000
  • 190656Z AUTO 20006KT 9SM -RA BKN015 OVC023 14/13 A2991 RMK AO2 SLP129 P0011 T01390128
  • 190645Z AUTO 16004KT 10SM RA FEW015 BKN024 OVC031 14/13 A2992 RMK AO2 P0009
  • 190603Z AUTO 25010KT 9SM -RA FEW024 BKN055 OVC070 14/13 A2992 RMK AO2 P0002
  • 190556Z AUTO 23009G18KT 8SM RA FEW012 BKN026 OVC065 14/13 A2992 RMK AO2 PK WND 25028/0537 SLP129 P0030 60030 T01390128 10178 20139 53012
  • 190547Z AUTO 21011G20KT 4SM RA BR SCT014 BKN023 OVC039 14/13 A2992 RMK AO2 PK WND 25028/0537 P0025

TAF KOTH
Valid from the 19 at 06:00 until the 20 at 06:00 UTC


190533Z 1906/2006 19006KT P6SM -SHRA VCTS SCT015 BKN030CB
FM190800 19005KT 5SM -RA BR OVC005
FM191200 20007KT 3SM -SHRA BR OVC007
FM192000 25009KT P6SM SCT015 BKN035
FM200400 VRB03KT 5SM BR BKN004
KZSE FIR / North America



MET'MAP, your aeronautical weather chart ! - Copyright ORBIFLY December 2007 - Disclaimer

ORBIFLY MET'MAP TEAM :

Programming & Development : Alexandra Zaïnal
Concept & original design : Baudouin d'Aumeries
Assistance for programming : Marc-Olivier Méhu
Technical & hardware support : Manuel Goepfert

Contact : metmap@orbifly.com




SOURCES & CREDITS :

   NOAA       Earth
Advisory